createdAt,value
2022-08-07T00:02:36.230Z,101915.13
2022-08-07T00:05:01.068Z,101912.44
2022-08-07T00:07:40.077Z,101911.53
2022-08-07T00:10:30.574Z,101916.84
2022-08-07T00:13:01.449Z,101910.56
2022-08-07T00:15:38.188Z,101903.47
2022-08-07T00:18:19.802Z,101899.88
2022-08-07T00:20:52.960Z,101913.22
2022-08-07T00:23:22.468Z,101914.97
2022-08-07T00:25:59.017Z,101910.50
2022-08-07T00:28:33.188Z,101906.03
2022-08-07T00:31:05.745Z,101910.47
2022-08-07T00:33:34.971Z,101912.22
2022-08-07T00:36:03.717Z,101913.09
2022-08-07T00:38:34.224Z,101908.63
2022-08-07T00:41:02.465Z,101906.81
2022-08-07T00:43:59.326Z,101909.44
2022-08-07T00:46:19.094Z,101905.00
2022-08-07T00:48:49.738Z,101898.78
2022-08-07T00:51:18.313Z,101901.44
2022-08-07T00:53:50.111Z,101904.06
2022-08-07T00:56:19.311Z,101898.72
2022-08-07T00:58:49.671Z,101896.03
2022-08-07T01:01:20.374Z,101891.59
2022-08-07T01:03:56.660Z,101895.13
2022-08-07T01:06:29.651Z,101899.53
2022-08-07T01:09:01.077Z,101898.63
2022-08-07T01:12:23.797Z,101899.50
2022-08-07T01:14:21.290Z,101907.47
2022-08-07T01:16:58.210Z,101901.22
2022-08-07T01:19:32.218Z,101898.50
2022-08-07T01:22:03.162Z,101901.16
2022-08-07T01:24:37.084Z,101894.91
2022-08-07T01:27:06.521Z,101900.19
2022-08-07T01:29:47.989Z,101901.06
2022-08-07T01:32:19.196Z,101890.38
2022-08-07T01:34:52.225Z,101906.31
2022-08-07T01:37:22.261Z,101903.63
2022-08-07T01:39:53.125Z,101900.06
2022-08-07T01:42:38.143Z,101893.81
2022-08-07T01:45:18.196Z,101892.00
2022-08-07T01:48:17.577Z,101897.25
2022-08-07T01:50:48.240Z,101891.00
2022-08-07T01:54:09.339Z,101882.06
2022-08-07T01:56:13.910Z,101886.47
2022-08-07T01:58:49.671Z,101888.22
2022-08-07T02:01:25.355Z,101893.47
2022-08-07T02:04:17.428Z,101890.78
2022-08-07T02:06:52.950Z,101891.59
2022-08-07T02:09:51.646Z,101880.91
2022-08-07T02:12:29.080Z,101891.53
2022-08-07T02:15:01.622Z,101887.94
2022-08-07T02:17:40.443Z,101890.56
2022-08-07T02:20:17.446Z,101881.63
2022-08-07T02:22:57.578Z,101880.69
2022-08-07T02:26:10.225Z,101878.88
2022-08-07T02:28:25.275Z,101877.06
2022-08-07T02:30:56.908Z,101881.47
2022-08-07T02:33:41.823Z,101884.06
2022-08-07T02:36:28.645Z,101885.78
2022-08-07T02:39:16.000Z,101879.56
2022-08-07T02:41:54.433Z,101887.47
2022-08-07T02:44:26.787Z,101882.13
2022-08-07T02:46:57.342Z,101881.22
2022-08-07T02:49:28.599Z,101885.63
2022-08-07T02:52:21.492Z,101880.25
2022-08-07T02:55:03.731Z,101885.53
2022-08-07T02:57:37.586Z,101884.59
2022-08-07T03:00:10.345Z,101889.03
2022-08-07T03:02:55.072Z,101887.22
2022-08-07T03:05:25.810Z,101877.44
2022-08-07T03:08:09.499Z,101881.81
2022-08-07T03:10:46.768Z,101886.22
2022-08-07T03:13:20.251Z,101877.31
2022-08-07T03:15:56.206Z,101872.88
2022-08-07T03:18:34.257Z,101881.66
2022-08-07T03:21:08.926Z,101878.06
2022-08-07T03:24:21.191Z,101887.78
2022-08-07T03:26:34.213Z,101878.91
2022-08-07T03:29:10.554Z,101884.16
2022-08-07T03:31:46.416Z,101880.56
2022-08-07T03:34:22.281Z,101883.16
2022-08-07T03:36:55.372Z,101876.03
2022-08-07T03:39:46.585Z,101876.84
2022-08-07T03:42:18.989Z,101880.41
2022-08-07T03:44:53.545Z,101883.88
2022-08-07T03:47:29.520Z,101887.41
2022-08-07T03:50:13.627Z,101889.13
2022-08-07T03:52:43.411Z,101889.09
2022-08-07T03:55:12.833Z,101892.59
2022-08-07T03:58:32.402Z,101904.97
2022-08-07T04:00:46.319Z,101903.09
2022-08-07T04:03:21.061Z,101899.47
2022-08-07T04:05:51.931Z,101894.13
2022-08-07T04:08:27.618Z,101897.63
2022-08-07T04:12:24.847Z,101899.41
2022-08-07T04:14:10.293Z,101899.38
2022-08-07T04:16:38.007Z,101908.16
2022-08-07T04:19:14.874Z,101901.97
2022-08-07T04:21:58.916Z,101909.09
2022-08-07T04:24:38.825Z,101899.34
2022-08-07T04:27:15.110Z,101894.03
2022-08-07T04:30:02.125Z,101894.94
2022-08-07T04:32:47.864Z,101897.63
2022-08-07T04:35:17.805Z,101902.06
2022-08-07T04:38:02.795Z,101892.34
2022-08-07T04:40:33.520Z,101902.09
2022-08-07T04:43:03.488Z,101907.41
2022-08-07T04:45:57.269Z,101911.78
2022-08-07T04:48:38.369Z,101913.59
2022-08-07T04:51:10.693Z,101914.53
2022-08-07T04:54:01.428Z,101910.16
2022-08-07T04:58:10.522Z,101910.22
2022-08-07T05:00:12.834Z,101914.69
2022-08-07T05:02:29.336Z,101921.84
2022-08-07T05:05:51.560Z,101920.16
2022-08-07T05:07:59.370Z,101916.69
2022-08-07T05:10:35.146Z,101920.31
2022-08-07T05:14:51.970Z,101914.22
2022-08-07T05:16:04.641Z,101916.06
2022-08-07T05:18:37.309Z,101917.03
2022-08-07T05:21:14.612Z,101918.00
2022-08-07T05:23:49.203Z,101926.94
2022-08-07T05:26:24.473Z,101916.34
2022-08-07T05:29:06.050Z,101925.31
2022-08-07T05:31:39.548Z,101932.56
2022-08-07T05:34:17.028Z,101920.25
2022-08-07T05:36:52.960Z,101918.56
2022-08-07T05:40:05.631Z,101914.22
2022-08-07T05:42:34.729Z,101919.69
2022-08-07T05:45:25.962Z,101917.19
2022-08-07T05:48:03.211Z,101921.78
2022-08-07T05:50:42.838Z,101921.06
2022-08-07T05:54:12.977Z,101920.28
2022-08-07T05:56:05.864Z,101922.19
2022-08-07T05:58:39.740Z,101925.88
2022-08-07T06:01:13.229Z,101925.09
2022-08-07T06:03:56.814Z,101920.78
2022-08-07T06:06:32.693Z,101924.44
2022-08-07T06:09:05.874Z,101926.31
2022-08-07T06:11:39.026Z,101926.38
2022-08-07T06:14:12.467Z,101924.66
2022-08-07T06:16:56.412Z,101926.53
2022-08-07T06:19:52.353Z,101923.97
2022-08-07T06:22:27.331Z,101921.34
2022-08-07T06:25:36.119Z,101918.75
2022-08-07T06:28:05.760Z,101919.69
2022-08-07T06:30:35.742Z,101916.19
2022-08-07T06:33:16.031Z,101924.22
2022-08-07T06:36:06.292Z,101920.66
2022-08-07T06:38:35.454Z,101918.03
2022-08-07T06:41:13.065Z,101927.84
2022-08-07T06:43:45.990Z,101925.16
2022-08-07T06:46:31.136Z,101924.25
2022-08-07T06:49:04.402Z,101925.19
2022-08-07T06:51:49.469Z,101918.03
2022-08-07T06:55:32.814Z,101924.28
2022-08-07T06:57:13.600Z,101922.47
2022-08-07T07:00:11.708Z,101917.97
2022-08-07T07:02:53.821Z,101921.53
2022-08-07T07:06:02.440Z,101921.47
2022-08-07T07:08:18.806Z,101923.22
2022-08-07T07:10:56.462Z,101922.28
2022-08-07T07:13:55.911Z,101918.69
2022-08-07T07:16:27.642Z,101920.34
2022-08-07T07:19:04.135Z,101919.41
2022-08-07T07:22:04.885Z,101922.03
2022-08-07T07:24:42.948Z,101921.06
2022-08-07T07:27:14.851Z,101916.50
2022-08-07T07:29:56.699Z,101923.56
2022-08-07T07:32:40.542Z,101913.63
2022-08-07T07:35:13.074Z,101913.53
2022-08-07T07:37:47.526Z,101905.38
2022-08-07T07:40:26.064Z,101912.47
2022-08-07T07:42:56.429Z,101908.75
2022-08-07T07:46:53.262Z,101905.97
2022-08-07T07:48:24.316Z,101913.88
2022-08-07T07:51:08.077Z,101898.47
2022-08-07T07:53:51.343Z,101895.63
2022-08-07T07:56:30.219Z,101899.91
2022-08-07T07:59:01.675Z,101894.34
2022-08-07T08:02:02.576Z,101891.44
2022-08-07T08:04:25.670Z,101884.91
2022-08-07T08:06:55.268Z,101889.13
2022-08-07T08:09:29.498Z,101884.44
2022-08-07T08:12:02.767Z,101886.00
2022-08-07T08:14:34.334Z,101884.81
2022-08-07T08:17:55.655Z,101883.69
2022-08-07T08:20:19.142Z,101880.66
2022-08-07T08:23:08.453Z,101880.31
2022-08-07T08:25:58.131Z,101877.22
2022-08-07T08:28:38.160Z,101881.22
2022-08-07T08:31:14.892Z,101883.47
2022-08-07T08:33:49.545Z,101884.84
2022-08-07T08:36:25.710Z,101878.25
2022-08-07T08:39:02.025Z,101885.06
2022-08-07T08:41:58.356Z,101872.94
2022-08-07T08:44:38.317Z,101869.72
2022-08-07T08:47:26.255Z,101871.91
2022-08-07T08:50:05.664Z,101877.88
2022-08-07T08:52:40.955Z,101865.81
2022-08-07T08:55:55.536Z,101860.88
2022-08-07T08:58:24.903Z,101866.78
2022-08-07T09:01:14.769Z,101860.28
2022-08-07T09:03:55.329Z,101858.84
2022-08-07T09:06:36.755Z,101849.25
2022-08-07T09:09:21.023Z,101854.06
2022-08-07T09:12:20.283Z,101848.75
2022-08-07T09:15:00.969Z,101850.59
2022-08-07T09:18:08.717Z,101850.84
2022-08-07T09:20:57.813Z,101841.22
2022-08-07T09:24:33.528Z,101848.41
2022-08-07T09:26:40.612Z,101848.19
2022-08-07T09:30:05.533Z,101846.19
2022-08-07T09:32:26.902Z,101849.75
2022-08-07T09:36:00.941Z,101840.41
2022-08-07T09:38:00.334Z,101842.97
2022-08-07T09:40:48.261Z,101846.09
2022-08-07T09:43:40.192Z,101839.31
2022-08-07T09:47:55.116Z,101832.25
2022-08-07T09:50:02.605Z,101829.69
2022-08-07T09:52:34.122Z,101820.78
2022-08-07T09:55:17.060Z,101824.59
2022-08-07T09:58:32.504Z,101822.06
2022-08-07T10:01:53.078Z,101814.06
2022-08-07T10:04:38.205Z,101810.44
2022-08-07T10:07:31.746Z,101807.88
2022-08-07T10:10:21.280Z,101807.22
2022-08-07T10:13:55.588Z,101812.00
2022-08-07T10:16:24.350Z,101804.97
2022-08-07T10:19:21.448Z,101798.00
2022-08-07T10:22:16.004Z,101796.25
2022-08-07T10:24:57.597Z,101796.34
2022-08-07T10:27:46.150Z,101790.75
2022-08-07T10:30:20.798Z,101792.53
2022-08-07T10:34:14.197Z,101785.63
2022-08-07T10:36:43.345Z,101793.28
2022-08-07T10:39:42.149Z,101780.63
2022-08-07T10:42:36.745Z,101778.41
2022-08-07T10:45:19.405Z,101775.63
2022-08-07T10:48:03.125Z,101767.38
2022-08-07T10:50:36.408Z,101761.16
2022-08-07T10:53:12.122Z,101764.94
2022-08-07T10:55:53.974Z,101761.63
2022-08-07T10:58:40.143Z,101754.28
2022-08-07T11:01:35.879Z,101756.03
2022-08-07T11:04:31.988Z,101749.53
2022-08-07T11:07:15.076Z,101752.09
2022-08-07T11:10:10.033Z,101739.31
2022-08-07T11:12:49.166Z,101743.41
2022-08-07T11:15:33.115Z,101731.53
2022-08-07T11:18:07.278Z,101733.06
2022-08-07T11:20:47.483Z,101729.59
2022-08-07T11:23:30.892Z,101733.41
2022-08-07T11:26:14.498Z,101730.34
2022-08-07T11:28:55.148Z,101726.56
2022-08-07T11:31:38.313Z,101719.47
2022-08-07T11:34:17.186Z,101715.44
2022-08-07T11:36:57.593Z,101716.06
2022-08-07T11:40:00.061Z,101725.31
2022-08-07T11:42:40.470Z,101715.38
2022-08-07T11:45:20.596Z,101713.38
2022-08-07T11:48:29.082Z,101706.59
2022-08-07T11:51:09.015Z,101710.06
2022-08-07T11:54:00.686Z,101698.13
2022-08-07T11:56:42.675Z,101694.84
2022-08-07T12:00:11.749Z,101687.56
2022-08-07T12:02:35.087Z,101690.09
2022-08-07T12:05:15.449Z,101699.97
2022-08-07T12:08:04.170Z,101689.81
2022-08-07T12:10:41.899Z,101701.09
2022-08-07T12:13:37.047Z,101686.06
2022-08-07T12:16:11.363Z,101691.13
2022-08-07T12:18:47.825Z,101694.38
2022-08-07T12:21:56.030Z,101691.63
2022-08-07T12:24:38.059Z,101690.47
2022-08-07T12:27:16.720Z,101684.13
2022-08-07T12:29:52.886Z,101685.47
2022-08-07T12:32:28.258Z,101683.41
2022-08-07T12:34:57.361Z,101671.69
2022-08-07T12:37:28.611Z,101664.13
2022-08-07T12:40:46.729Z,101664.09
2022-08-07T12:43:11.695Z,101658.25
2022-08-07T12:46:09.807Z,101656.78
2022-08-07T12:48:52.942Z,101645.69
2022-08-07T12:51:46.739Z,101652.09
2022-08-07T12:54:38.659Z,101649.38
2022-08-07T12:57:10.072Z,101655.56
2022-08-07T12:59:54.526Z,101645.44
2022-08-07T13:02:41.773Z,101642.22
2022-08-07T13:06:02.631Z,101641.63
2022-08-07T13:08:35.004Z,101644.38
2022-08-07T13:11:18.344Z,101642.03
2022-08-07T13:13:57.287Z,101636.22
2022-08-07T13:16:36.943Z,101639.19
2022-08-07T13:19:22.068Z,101633.88
2022-08-07T13:22:12.654Z,101635.47
2022-08-07T13:25:00.278Z,101628.16
2022-08-07T13:28:05.790Z,101620.91
2022-08-07T13:30:41.002Z,101616.66
2022-08-07T13:34:30.086Z,101616.91
2022-08-07T13:36:25.868Z,101618.69
2022-08-07T13:39:05.023Z,101615.94
2022-08-07T13:41:47.528Z,101609.78
2022-08-07T13:44:25.794Z,101616.16
2022-08-07T13:46:59.455Z,101597.41
2022-08-07T13:50:34.858Z,101600.38
2022-08-07T13:52:31.801Z,101593.88
2022-08-07T13:55:08.027Z,101592.13
2022-08-07T13:57:58.962Z,101602.09
2022-08-07T14:00:50.410Z,101598.59
2022-08-07T14:03:29.976Z,101593.75
2022-08-07T14:06:14.882Z,101590.66
2022-08-07T14:08:48.729Z,101585.72
2022-08-07T14:11:24.194Z,101591.97
2022-08-07T14:13:57.203Z,101592.88
2022-08-07T14:16:31.333Z,101584.84
2022-08-07T14:19:02.646Z,101586.72
2022-08-07T14:22:03.358Z,101593.59
2022-08-07T14:24:29.318Z,101584.28
2022-08-07T14:28:11.455Z,101584.59
2022-08-07T14:30:06.482Z,101577.47
2022-08-07T14:32:45.583Z,101575.28
2022-08-07T14:35:45.088Z,101568.75
2022-08-07T14:38:30.224Z,101567.41
2022-08-07T14:41:03.881Z,101565.25
2022-08-07T14:46:31.366Z,101557.81
2022-08-07T14:49:55.863Z,101552.31
2022-08-07T14:52:03.861Z,101548.22
2022-08-07T14:54:43.039Z,101549.66
2022-08-07T14:57:14.879Z,101552.19
2022-08-07T15:00:03.253Z,101539.78
2022-08-07T15:02:37.177Z,101541.44
2022-08-07T15:05:19.807Z,101534.78
2022-08-07T15:07:51.314Z,101543.81
2022-08-07T15:10:25.100Z,101542.84
2022-08-07T15:12:58.057Z,101540.34
2022-08-07T15:15:38.415Z,101537.72
2022-08-07T15:18:14.040Z,101535.59
2022-08-07T15:21:03.814Z,101538.00
2022-08-07T15:25:15.512Z,101533.00
2022-08-07T15:26:38.147Z,101537.19
2022-08-07T15:34:55.524Z,101531.22
2022-08-07T15:37:28.359Z,101531.78
2022-08-07T15:39:59.688Z,101528.50
2022-08-07T15:42:52.158Z,101528.50
2022-08-07T15:45:56.812Z,101523.19
2022-08-07T15:48:30.352Z,101518.56
2022-08-07T15:51:10.102Z,101517.22
2022-08-07T15:53:53.078Z,101515.66
2022-08-07T15:56:25.920Z,101506.28
2022-08-07T15:58:59.303Z,101514.25
2022-08-07T16:01:38.527Z,101510.38
2022-08-07T16:04:14.848Z,101508.16
2022-08-07T16:06:50.840Z,101510.06
2022-08-07T16:09:24.490Z,101506.38
2022-08-07T16:12:28.565Z,101502.00
2022-08-07T16:15:55.442Z,101498.13
2022-08-07T16:18:14.439Z,101501.84
2022-08-07T16:22:03.420Z,101496.38
2022-08-07T16:24:02.433Z,101497.22
2022-08-07T16:26:59.162Z,101498.88
2022-08-07T16:30:10.773Z,101500.91
2022-08-07T16:32:46.334Z,101491.22
2022-08-07T16:35:52.365Z,101489.22
2022-08-07T16:38:59.902Z,101491.63
2022-08-07T16:41:54.193Z,101487.88
2022-08-07T16:45:15.596Z,101486.88
2022-08-07T16:48:28.495Z,101496.03
2022-08-07T16:51:51.795Z,101487.63
2022-08-07T16:54:16.705Z,101492.13
2022-08-07T16:56:57.093Z,101501.84
2022-08-07T16:59:46.722Z,101493.34
2022-08-07T17:02:53.432Z,101489.47
2022-08-07T17:06:19.400Z,101491.94
2022-08-07T17:09:04.387Z,101485.94
2022-08-07T17:12:01.251Z,101489.19
2022-08-07T17:14:32.141Z,101491.78
2022-08-07T17:17:07.645Z,101487.88
2022-08-07T17:20:02.736Z,101485.47
2022-08-07T17:22:37.974Z,101495.94
2022-08-07T17:25:15.697Z,101490.19
2022-08-07T17:27:56.074Z,101486.13
2022-08-07T17:30:27.029Z,101488.41
2022-08-07T17:34:15.003Z,101484.34
2022-08-07T17:36:01.245Z,101490.22
2022-08-07T17:38:44.416Z,101490.69
2022-08-07T17:42:01.495Z,101483.03
2022-08-07T17:44:35.048Z,101489.88
2022-08-07T17:47:08.536Z,101493.84
2022-08-07T17:49:44.587Z,101485.22
2022-08-07T17:52:30.600Z,101488.28
2022-08-07T17:55:09.235Z,101485.19
2022-08-07T17:57:58.981Z,101488.31
2022-08-07T18:00:48.415Z,101490.56
2022-08-07T18:03:25.534Z,101493.84
2022-08-07T18:06:02.273Z,101487.94
2022-08-07T18:08:35.289Z,101492.00
2022-08-07T18:11:53.671Z,101489.72
2022-08-07T18:14:05.862Z,101485.75
2022-08-07T18:16:37.399Z,101486.16
2022-08-07T18:21:10.622Z,101486.56
2022-08-07T18:22:28.962Z,101492.44
2022-08-07T18:25:24.052Z,101489.25
2022-08-07T18:28:15.348Z,101494.13
2022-08-07T18:31:05.717Z,101498.13
2022-08-07T18:33:58.900Z,101504.81
2022-08-07T18:36:40.941Z,101503.38
2022-08-07T18:40:08.958Z,101507.34
2022-08-07T18:42:18.714Z,101503.19
2022-08-07T18:45:44.874Z,101504.44
2022-08-07T18:48:00.666Z,101506.69
2022-08-07T18:50:58.220Z,101507.94
2022-08-07T18:53:40.127Z,101507.47
2022-08-07T18:56:16.263Z,101516.88
2022-08-07T18:59:00.825Z,101514.53
2022-08-07T19:02:18.036Z,101518.47
2022-08-07T19:04:57.726Z,101522.41
2022-08-07T19:07:34.946Z,101522.78
2022-08-07T19:10:12.060Z,101526.59
2022-08-07T19:12:59.180Z,101518.84
2022-08-07T19:16:05.169Z,101524.47
2022-08-07T19:18:36.986Z,101531.94
2022-08-07T19:21:47.547Z,101534.13
2022-08-07T19:24:11.554Z,101541.59
2022-08-07T19:28:30.536Z,101547.31
2022-08-07T19:31:00.217Z,101553.00
2022-08-07T19:32:46.100Z,101549.72
2022-08-07T19:35:22.569Z,101563.47
2022-08-07T19:37:57.601Z,101555.59
2022-08-07T19:40:31.267Z,101550.47
2022-08-07T19:43:09.318Z,101556.06
2022-08-07T19:46:07.859Z,101562.59
2022-08-07T19:48:43.609Z,101553.88
2022-08-07T19:51:20.015Z,101563.97
2022-08-07T19:54:33.107Z,101566.03
2022-08-07T19:58:00.227Z,101567.19
2022-08-07T19:59:41.569Z,101568.31
2022-08-07T20:02:19.813Z,101573.91
2022-08-07T20:04:51.924Z,101565.19
2022-08-07T20:07:47.202Z,101564.44
2022-08-07T20:10:35.535Z,101569.16
2022-08-07T20:13:23.069Z,101568.47
2022-08-07T20:15:57.553Z,101566.84
2022-08-07T20:18:32.826Z,101573.31
2022-08-07T20:21:21.363Z,101570.78
2022-08-07T20:23:57.960Z,101569.19
2022-08-07T20:26:38.619Z,101577.44
2022-08-07T20:29:47.237Z,101577.63
2022-08-07T20:32:06.814Z,101582.28
2022-08-07T20:34:50.774Z,101576.19
2022-08-07T20:37:24.270Z,101579.06
2022-08-07T20:40:02.231Z,101573.78
2022-08-07T20:42:33.617Z,101580.22
2022-08-07T20:45:02.601Z,101578.53
2022-08-07T20:47:55.947Z,101575.06
2022-08-07T20:50:26.695Z,101575.22
2022-08-07T20:52:55.096Z,101579.81
2022-08-07T20:55:26.218Z,101576.38
2022-08-07T20:58:02.355Z,101575.63
2022-08-07T21:00:42.865Z,101575.72
2022-08-07T21:03:15.230Z,101583.03
2022-08-07T21:05:54.435Z,101577.78
2022-08-07T21:08:36.941Z,101579.72
2022-08-07T21:11:12.314Z,101579.84
2022-08-07T21:14:16.461Z,101578.16
2022-08-07T21:16:56.482Z,101577.38
2022-08-07T21:19:51.430Z,101575.72
2022-08-07T21:22:20.829Z,101574.97
2022-08-07T21:25:12.395Z,101576.84
2022-08-07T21:28:02.070Z,101579.66
2022-08-07T21:30:38.844Z,101577.06
2022-08-07T21:33:16.487Z,101586.16
2022-08-07T21:36:05.510Z,101589.78
2022-08-07T21:38:49.748Z,101583.63
2022-08-07T21:41:23.497Z,101578.34
2022-08-07T21:44:03.827Z,101589.16
2022-08-07T21:46:40.508Z,101585.69
2022-08-07T21:49:16.438Z,101585.78
2022-08-07T21:51:57.699Z,101582.31
2022-08-07T21:54:39.184Z,101585.06
2022-08-07T21:57:39.532Z,101584.25
2022-08-07T22:00:22.268Z,101581.66
2022-08-07T22:03:00.226Z,101585.34
2022-08-07T22:05:44.754Z,101588.09
2022-08-07T22:08:18.349Z,101586.41
2022-08-07T22:10:50.533Z,101588.25
2022-08-07T22:13:24.305Z,101597.25
2022-08-07T22:16:42.219Z,101582.13
2022-08-07T22:19:07.483Z,101588.50
2022-08-07T22:22:01.916Z,101593.94
2022-08-07T22:24:35.485Z,101592.25
2022-08-07T22:27:13.546Z,101587.81
2022-08-07T22:29:50.334Z,101593.28
2022-08-07T22:32:25.357Z,101589.72
2022-08-07T22:34:55.548Z,101588.91
2022-08-07T22:38:03.286Z,101585.41
2022-08-07T22:40:29.456Z,101589.94
2022-08-07T22:43:03.176Z,101595.38
2022-08-07T22:46:40.831Z,101591.88
2022-08-07T22:49:02.341Z,101591.03
2022-08-07T22:51:53.796Z,101594.69
2022-08-07T22:54:49.472Z,101599.25
2022-08-07T22:57:40.967Z,101601.09
2022-08-07T23:00:16.041Z,101600.25
2022-08-07T23:02:58.584Z,101606.53
2022-08-07T23:06:07.268Z,101608.38
2022-08-07T23:10:00.690Z,101605.75
2022-08-07T23:12:06.210Z,101608.53
2022-08-07T23:14:47.437Z,101602.34
2022-08-07T23:17:31.585Z,101601.50
2022-08-07T23:20:51.349Z,101613.13
2022-08-07T23:24:05.290Z,101608.75
2022-08-07T23:26:50.083Z,101607.03
2022-08-07T23:30:38.934Z,101608.84
2022-08-07T23:34:34.961Z,101615.09
2022-08-07T23:36:08.553Z,101606.22
2022-08-07T23:38:57.207Z,101600.94
2022-08-07T23:42:01.835Z,101600.97
2022-08-07T23:44:45.108Z,101601.88
2022-08-07T23:47:27.493Z,101608.16
2022-08-07T23:50:16.322Z,101600.19
2022-08-07T23:53:11.853Z,101609.16
2022-08-07T23:55:52.897Z,101607.41
2022-08-07T23:58:28.113Z,101604.78
